sensor_id;sensor_type;location;lat;lon;timestamp;P1;durP1;ratioP1;P2;durP2;ratioP2
42094;SDS011;27753;55.724;37.612;2023-07-24T00:01:00;8.48;;;4.93;;
42094;SDS011;27753;55.724;37.612;2023-07-24T00:03:26;5.97;;;4.72;;
42094;SDS011;27753;55.724;37.612;2023-07-24T00:05:52;7.28;;;5.28;;
42094;SDS011;27753;55.724;37.612;2023-07-24T00:08:18;9.07;;;5.10;;
42094;SDS011;27753;55.724;37.612;2023-07-24T00:10:44;6.15;;;4.80;;
42094;SDS011;27753;55.724;37.612;2023-07-24T00:13:10;8.20;;;5.18;;
42094;SDS011;27753;55.724;37.612;2023-07-24T00:15:38;7.65;;;4.78;;
42094;SDS011;27753;55.724;37.612;2023-07-24T00:18:05;4.40;;;3.83;;
42094;SDS011;27753;55.724;37.612;2023-07-24T00:20:30;7.38;;;4.22;;
42094;SDS011;27753;55.724;37.612;2023-07-24T00:22:56;5.55;;;4.32;;
42094;SDS011;27753;55.724;37.612;2023-07-24T00:25:22;6.25;;;4.07;;
42094;SDS011;27753;55.724;37.612;2023-07-24T00:27:48;5.15;;;3.88;;
42094;SDS011;27753;55.724;37.612;2023-07-24T00:30:14;7.55;;;4.38;;
42094;SDS011;27753;55.724;37.612;2023-07-24T00:32:40;6.07;;;4.63;;
42094;SDS011;27753;55.724;37.612;2023-07-24T00:35:06;7.53;;;5.35;;
42094;SDS011;27753;55.724;37.612;2023-07-24T00:37:33;5.32;;;4.82;;
42094;SDS011;27753;55.724;37.612;2023-07-24T00:39:59;7.80;;;4.57;;
42094;SDS011;27753;55.724;37.612;2023-07-24T00:42:25;7.20;;;4.72;;
42094;SDS011;27753;55.724;37.612;2023-07-24T00:44:51;7.57;;;5.15;;
42094;SDS011;27753;55.724;37.612;2023-07-24T00:47:17;7.43;;;4.80;;
42094;SDS011;27753;55.724;37.612;2023-07-24T00:49:43;5.97;;;4.47;;
42094;SDS011;27753;55.724;37.612;2023-07-24T00:52:10;5.53;;;4.57;;
42094;SDS011;27753;55.724;37.612;2023-07-24T00:54:36;4.22;;;3.83;;
42094;SDS011;27753;55.724;37.612;2023-07-24T00:57:03;6.22;;;4.72;;
42094;SDS011;27753;55.724;37.612;2023-07-24T00:59:30;7.68;;;4.80;;
42094;SDS011;27753;55.724;37.612;2023-07-24T01:01:57;6.70;;;4.97;;
42094;SDS011;27753;55.724;37.612;2023-07-24T01:04:24;9.32;;;5.20;;
42094;SDS011;27753;55.724;37.612;2023-07-24T01:06:50;7.43;;;4.57;;
42094;SDS011;27753;55.724;37.612;2023-07-24T01:09:16;6.13;;;4.88;;
42094;SDS011;27753;55.724;37.612;2023-07-24T01:15:09;7.65;;;6.03;;
42094;SDS011;27753;55.724;37.612;2023-07-24T01:17:41;6.55;;;5.75;;
42094;SDS011;27753;55.724;37.612;2023-07-24T01:20:12;8.27;;;5.60;;
42094;SDS011;27753;55.724;37.612;2023-07-24T01:25:56;6.13;;;5.30;;
42094;SDS011;27753;55.724;37.612;2023-07-24T01:28:26;6.85;;;5.20;;
42094;SDS011;27753;55.724;37.612;2023-07-24T01:30:52;8.68;;;5.35;;
42094;SDS011;27753;55.724;37.612;2023-07-24T01:33:18;7.00;;;5.60;;
42094;SDS011;27753;55.724;37.612;2023-07-24T01:35:48;11.00;;;5.28;;
42094;SDS011;27753;55.724;37.612;2023-07-24T01:38:18;5.82;;;4.60;;
42094;SDS011;27753;55.724;37.612;2023-07-24T01:40:44;6.53;;;5.22;;
42094;SDS011;27753;55.724;37.612;2023-07-24T01:43:10;9.48;;;5.55;;
42094;SDS011;27753;55.724;37.612;2023-07-24T01:45:37;6.75;;;4.82;;
42094;SDS011;27753;55.724;37.612;2023-07-24T01:48:03;8.80;;;5.13;;
42094;SDS011;27753;55.724;37.612;2023-07-24T01:52:56;9.05;;;4.30;;
42094;SDS011;27753;55.724;37.612;2023-07-24T01:55:22;6.72;;;4.50;;
42094;SDS011;27753;55.724;37.612;2023-07-24T01:57:48;12.25;;;4.85;;
42094;SDS011;27753;55.724;37.612;2023-07-24T02:00:14;7.10;;;4.80;;
42094;SDS011;27753;55.724;37.612;2023-07-24T02:02:40;6.18;;;4.93;;
42094;SDS011;27753;55.724;37.612;2023-07-24T02:05:06;9.07;;;4.63;;
42094;SDS011;27753;55.724;37.612;2023-07-24T02:07:32;5.32;;;4.63;;
42094;SDS011;27753;55.724;37.612;2023-07-24T02:09:58;6.30;;;4.18;;
42094;SDS011;27753;55.724;37.612;2023-07-24T02:12:24;8.40;;;4.88;;
42094;SDS011;27753;55.724;37.612;2023-07-24T02:14:50;5.30;;;4.68;;
42094;SDS011;27753;55.724;37.612;2023-07-24T02:17:19;6.15;;;4.70;;
42094;SDS011;27753;55.724;37.612;2023-07-24T02:19:45;5.22;;;4.30;;
42094;SDS011;27753;55.724;37.612;2023-07-24T02:22:11;5.75;;;4.55;;
42094;SDS011;27753;55.724;37.612;2023-07-24T02:24:37;6.55;;;4.07;;
42094;SDS011;27753;55.724;37.612;2023-07-24T02:27:04;7.03;;;4.32;;
42094;SDS011;27753;55.724;37.612;2023-07-24T02:29:30;5.60;;;4.20;;
42094;SDS011;27753;55.724;37.612;2023-07-24T02:31:57;9.23;;;4.22;;
42094;SDS011;27753;55.724;37.612;2023-07-24T02:34:23;7.05;;;4.40;;
42094;SDS011;27753;55.724;37.612;2023-07-24T02:36:54;5.10;;;3.90;;
42094;SDS011;27753;55.724;37.612;2023-07-24T02:39:20;5.05;;;4.25;;
42094;SDS011;27753;55.724;37.612;2023-07-24T02:41:49;5.05;;;4.10;;
42094;SDS011;27753;55.724;37.612;2023-07-24T02:44:15;6.97;;;3.95;;
42094;SDS011;27753;55.724;37.612;2023-07-24T02:46:41;5.90;;;4.45;;
42094;SDS011;27753;55.724;37.612;2023-07-24T02:49:07;4.95;;;3.95;;
42094;SDS011;27753;55.724;37.612;2023-07-24T02:51:33;9.02;;;4.70;;
42094;SDS011;27753;55.724;37.612;2023-07-24T02:53:59;8.95;;;6.00;;
42094;SDS011;27753;55.724;37.612;2023-07-24T02:56:25;6.88;;;4.80;;
42094;SDS011;27753;55.724;37.612;2023-07-24T02:58:51;6.40;;;4.63;;
42094;SDS011;27753;55.724;37.612;2023-07-24T03:01:17;6.07;;;4.03;;
42094;SDS011;27753;55.724;37.612;2023-07-24T03:03:43;7.35;;;4.60;;
42094;SDS011;27753;55.724;37.612;2023-07-24T03:06:09;7.55;;;4.40;;
42094;SDS011;27753;55.724;37.612;2023-07-24T03:08:35;4.75;;;4.07;;
42094;SDS011;27753;55.724;37.612;2023-07-24T03:11:04;5.72;;;4.45;;
42094;SDS011;27753;55.724;37.612;2023-07-24T03:13:30;8.32;;;4.80;;
42094;SDS011;27753;55.724;37.612;2023-07-24T03:15:56;7.13;;;5.15;;
42094;SDS011;27753;55.724;37.612;2023-07-24T03:18:23;5.55;;;4.75;;
42094;SDS011;27753;55.724;37.612;2023-07-24T03:20:49;8.55;;;4.88;;
42094;SDS011;27753;55.724;37.612;2023-07-24T03:23:15;5.22;;;4.18;;
42094;SDS011;27753;55.724;37.612;2023-07-24T03:25:41;8.35;;;5.22;;
42094;SDS011;27753;55.724;37.612;2023-07-24T03:28:07;8.68;;;5.47;;
42094;SDS011;27753;55.724;37.612;2023-07-24T03:30:33;8.95;;;5.05;;
42094;SDS011;27753;55.724;37.612;2023-07-24T03:32:59;8.65;;;4.93;;
42094;SDS011;27753;55.724;37.612;2023-07-24T03:35:26;8.00;;;5.50;;
42094;SDS011;27753;55.724;37.612;2023-07-24T03:37:52;11.98;;;5.13;;
42094;SDS011;27753;55.724;37.612;2023-07-24T03:40:18;5.57;;;4.43;;
42094;SDS011;27753;55.724;37.612;2023-07-24T03:42:44;5.78;;;4.60;;
42094;SDS011;27753;55.724;37.612;2023-07-24T03:45:10;8.65;;;5.82;;
42094;SDS011;27753;55.724;37.612;2023-07-24T03:47:35;5.32;;;4.63;;
42094;SDS011;27753;55.724;37.612;2023-07-24T03:50:01;7.07;;;4.65;;
42094;SDS011;27753;55.724;37.612;2023-07-24T03:52:27;7.75;;;4.55;;
42094;SDS011;27753;55.724;37.612;2023-07-24T03:54:53;7.18;;;4.78;;
42094;SDS011;27753;55.724;37.612;2023-07-24T03:57:19;5.15;;;4.43;;
42094;SDS011;27753;55.724;37.612;2023-07-24T03:59:45;8.25;;;5.05;;
42094;SDS011;27753;55.724;37.612;2023-07-24T04:02:10;7.80;;;4.95;;
42094;SDS011;27753;55.724;37.612;2023-07-24T04:04:37;6.13;;;4.38;;
42094;SDS011;27753;55.724;37.612;2023-07-24T04:07:03;8.68;;;5.55;;
42094;SDS011;27753;55.724;37.612;2023-07-24T04:09:29;7.03;;;4.23;;
42094;SDS011;27753;55.724;37.612;2023-07-24T04:11:55;8.77;;;5.00;;
42094;SDS011;27753;55.724;37.612;2023-07-24T04:14:21;6.35;;;4.95;;
42094;SDS011;27753;55.724;37.612;2023-07-24T04:16:47;8.10;;;4.53;;
42094;SDS011;27753;55.724;37.612;2023-07-24T04:19:13;6.75;;;4.35;;
42094;SDS011;27753;55.724;37.612;2023-07-24T04:21:39;5.53;;;4.32;;
42094;SDS011;27753;55.724;37.612;2023-07-24T04:24:05;6.05;;;4.43;;
42094;SDS011;27753;55.724;37.612;2023-07-24T04:26:31;7.13;;;4.32;;
42094;SDS011;27753;55.724;37.612;2023-07-24T04:28:56;5.93;;;4.07;;
42094;SDS011;27753;55.724;37.612;2023-07-24T04:31:22;10.02;;;4.28;;
42094;SDS011;27753;55.724;37.612;2023-07-24T04:33:48;5.47;;;4.28;;
42094;SDS011;27753;55.724;37.612;2023-07-24T04:36:14;5.30;;;4.05;;
42094;SDS011;27753;55.724;37.612;2023-07-24T04:38:40;4.65;;;3.90;;
42094;SDS011;27753;55.724;37.612;2023-07-24T04:41:06;4.82;;;4.20;;
42094;SDS011;27753;55.724;37.612;2023-07-24T04:43:32;4.63;;;3.45;;
42094;SDS011;27753;55.724;37.612;2023-07-24T04:45:57;5.53;;;4.90;;
42094;SDS011;27753;55.724;37.612;2023-07-24T04:48:23;4.90;;;3.28;;
42094;SDS011;27753;55.724;37.612;2023-07-24T04:50:53;6.35;;;3.80;;
42094;SDS011;27753;55.724;37.612;2023-07-24T04:53:20;6.22;;;3.90;;
42094;SDS011;27753;55.724;37.612;2023-07-24T04:55:46;6.47;;;3.47;;
42094;SDS011;27753;55.724;37.612;2023-07-24T04:58:12;5.70;;;3.65;;
42094;SDS011;27753;55.724;37.612;2023-07-24T05:00:38;4.20;;;3.15;;
42094;SDS011;27753;55.724;37.612;2023-07-24T05:03:04;6.35;;;3.70;;
42094;SDS011;27753;55.724;37.612;2023-07-24T05:07:57;3.75;;;3.20;;
42094;SDS011;27753;55.724;37.612;2023-07-24T05:10:23;4.13;;;3.03;;
42094;SDS011;27753;55.724;37.612;2023-07-24T05:12:49;6.50;;;3.10;;
42094;SDS011;27753;55.724;37.612;2023-07-24T05:15:15;6.40;;;2.83;;
42094;SDS011;27753;55.724;37.612;2023-07-24T05:17:42;5.40;;;3.60;;
42094;SDS011;27753;55.724;37.612;2023-07-24T05:20:09;3.47;;;3.17;;
42094;SDS011;27753;55.724;37.612;2023-07-24T05:22:35;4.53;;;3.63;;
42094;SDS011;27753;55.724;37.612;2023-07-24T05:25:01;14.10;;;3.28;;
42094;SDS011;27753;55.724;37.612;2023-07-24T05:27:27;4.88;;;3.05;;
42094;SDS011;27753;55.724;37.612;2023-07-24T05:29:54;3.92;;;3.00;;
42094;SDS011;27753;55.724;37.612;2023-07-24T05:32:20;5.13;;;2.97;;
42094;SDS011;27753;55.724;37.612;2023-07-24T05:34:46;6.07;;;3.25;;
42094;SDS011;27753;55.724;37.612;2023-07-24T05:37:12;6.63;;;3.65;;
42094;SDS011;27753;55.724;37.612;2023-07-24T05:39:38;6.63;;;3.13;;
42094;SDS011;27753;55.724;37.612;2023-07-24T05:42:04;5.78;;;2.90;;
42094;SDS011;27753;55.724;37.612;2023-07-24T05:44:30;6.75;;;3.30;;
42094;SDS011;27753;55.724;37.612;2023-07-24T05:46:56;9.10;;;3.38;;
42094;SDS011;27753;55.724;37.612;2023-07-24T05:49:21;6.72;;;2.65;;
42094;SDS011;27753;55.724;37.612;2023-07-24T05:51:49;6.50;;;3.53;;
42094;SDS011;27753;55.724;37.612;2023-07-24T05:54:15;5.45;;;3.28;;
42094;SDS011;27753;55.724;37.612;2023-07-24T05:56:40;5.07;;;3.17;;
42094;SDS011;27753;55.724;37.612;2023-07-24T05:59:06;3.97;;;3.03;;
42094;SDS011;27753;55.724;37.612;2023-07-24T06:01:32;5.47;;;2.92;;
42094;SDS011;27753;55.724;37.612;2023-07-24T06:03:58;5.05;;;2.25;;
42094;SDS011;27753;55.724;37.612;2023-07-24T06:06:24;5.60;;;2.90;;
42094;SDS011;27753;55.724;37.612;2023-07-24T06:08:53;5.32;;;3.05;;
42094;SDS011;27753;55.724;37.612;2023-07-24T06:11:19;3.75;;;2.60;;
42094;SDS011;27753;55.724;37.612;2023-07-24T06:13:45;11.60;;;3.58;;
42094;SDS011;27753;55.724;37.612;2023-07-24T06:16:11;6.10;;;2.33;;
42094;SDS011;27753;55.724;37.612;2023-07-24T06:18:39;5.15;;;2.90;;
42094;SDS011;27753;55.724;37.612;2023-07-24T06:21:09;4.63;;;3.05;;
42094;SDS011;27753;55.724;37.612;2023-07-24T06:23:39;6.00;;;3.67;;
42094;SDS011;27753;55.724;37.612;2023-07-24T06:26:05;8.75;;;3.13;;
42094;SDS011;27753;55.724;37.612;2023-07-24T06:28:31;5.13;;;2.83;;
42094;SDS011;27753;55.724;37.612;2023-07-24T06:30:59;8.05;;;2.70;;
42094;SDS011;27753;55.724;37.612;2023-07-24T06:33:25;10.50;;;3.20;;
42094;SDS011;27753;55.724;37.612;2023-07-24T06:35:51;5.78;;;2.92;;
42094;SDS011;27753;55.724;37.612;2023-07-24T06:38:18;6.32;;;3.08;;
42094;SDS011;27753;55.724;37.612;2023-07-24T06:40:51;6.03;;;3.00;;
42094;SDS011;27753;55.724;37.612;2023-07-24T06:43:29;3.70;;;2.75;;
42094;SDS011;27753;55.724;37.612;2023-07-24T06:45:55;4.28;;;2.65;;
42094;SDS011;27753;55.724;37.612;2023-07-24T06:48:22;4.40;;;2.10;;
42094;SDS011;27753;55.724;37.612;2023-07-24T06:50:48;4.07;;;1.90;;
42094;SDS011;27753;55.724;37.612;2023-07-24T06:53:14;3.38;;;2.45;;
42094;SDS011;27753;55.724;37.612;2023-07-24T06:55:41;4.47;;;2.25;;
42094;SDS011;27753;55.724;37.612;2023-07-24T06:58:09;2.78;;;2.15;;
42094;SDS011;27753;55.724;37.612;2023-07-24T07:00:37;5.03;;;2.13;;
42094;SDS011;27753;55.724;37.612;2023-07-24T07:03:04;3.83;;;2.50;;
42094;SDS011;27753;55.724;37.612;2023-07-24T07:05:33;7.05;;;2.85;;
42094;SDS011;27753;55.724;37.612;2023-07-24T07:08:01;6.93;;;2.40;;
42094;SDS011;27753;55.724;37.612;2023-07-24T07:10:30;2.72;;;2.10;;
42094;SDS011;27753;55.724;37.612;2023-07-24T07:12:58;4.18;;;2.47;;
42094;SDS011;27753;55.724;37.612;2023-07-24T07:15:30;5.85;;;2.28;;
42094;SDS011;27753;55.724;37.612;2023-07-24T07:18:03;2.58;;;2.30;;
42094;SDS011;27753;55.724;37.612;2023-07-24T07:20:44;8.52;;;3.13;;
42094;SDS011;27753;55.724;37.612;2023-07-24T07:23:11;10.13;;;4.25;;
42094;SDS011;27753;55.724;37.612;2023-07-24T07:25:45;8.43;;;3.35;;
42094;SDS011;27753;55.724;37.612;2023-07-24T07:28:16;5.65;;;2.60;;
42094;SDS011;27753;55.724;37.612;2023-07-24T07:30:45;9.73;;;3.80;;
42094;SDS011;27753;55.724;37.612;2023-07-24T07:33:18;7.13;;;2.58;;
42094;SDS011;27753;55.724;37.612;2023-07-24T07:35:49;3.08;;;2.13;;
42094;SDS011;27753;55.724;37.612;2023-07-24T07:38:22;5.60;;;2.33;;
42094;SDS011;27753;55.724;37.612;2023-07-24T07:40:51;4.10;;;2.47;;
42094;SDS011;27753;55.724;37.612;2023-07-24T07:43:19;10.38;;;4.05;;
42094;SDS011;27753;55.724;37.612;2023-07-24T07:46:27;10.35;;;3.53;;
42094;SDS011;27753;55.724;37.612;2023-07-24T07:48:53;10.93;;;4.38;;
42094;SDS011;27753;55.724;37.612;2023-07-24T07:51:20;4.28;;;3.22;;
42094;SDS011;27753;55.724;37.612;2023-07-24T07:53:53;6.78;;;3.70;;
42094;SDS011;27753;55.724;37.612;2023-07-24T07:56:42;7.72;;;3.55;;
42094;SDS011;27753;55.724;37.612;2023-07-24T07:59:20;16.38;;;4.80;;
42094;SDS011;27753;55.724;37.612;2023-07-24T08:01:52;15.88;;;7.18;;
42094;SDS011;27753;55.724;37.612;2023-07-24T08:04:35;14.45;;;5.60;;
42094;SDS011;27753;55.724;37.612;2023-07-24T08:07:10;5.28;;;4.07;;
42094;SDS011;27753;55.724;37.612;2023-07-24T08:09:45;8.05;;;4.45;;
42094;SDS011;27753;55.724;37.612;2023-07-24T08:12:40;11.88;;;4.80;;
42094;SDS011;27753;55.724;37.612;2023-07-24T08:21:08;7.07;;;3.67;;
42094;SDS011;27753;55.724;37.612;2023-07-24T08:23:42;7.72;;;3.90;;
42094;SDS011;27753;55.724;37.612;2023-07-24T08:26:18;16.05;;;4.00;;
42094;SDS011;27753;55.724;37.612;2023-07-24T08:28:51;7.97;;;3.88;;
42094;SDS011;27753;55.724;37.612;2023-07-24T08:31:38;7.07;;;3.30;;
42094;SDS011;27753;55.724;37.612;2023-07-24T08:34:32;4.97;;;2.90;;
42094;SDS011;27753;55.724;37.612;2023-07-24T08:37:22;8.80;;;3.53;;
42094;SDS011;27753;55.724;37.612;2023-07-24T08:39:56;4.55;;;2.90;;
42094;SDS011;27753;55.724;37.612;2023-07-24T08:42:30;8.10;;;4.28;;
42094;SDS011;27753;55.724;37.612;2023-07-24T08:52:09;5.75;;;3.85;;
42094;SDS011;27753;55.724;37.612;2023-07-24T08:55:11;5.63;;;3.40;;
42094;SDS011;27753;55.724;37.612;2023-07-24T08:58:12;5.95;;;3.17;;
42094;SDS011;27753;55.724;37.612;2023-07-24T09:01:17;7.03;;;4.00;;
42094;SDS011;27753;55.724;37.612;2023-07-24T09:04:06;9.90;;;4.97;;
42094;SDS011;27753;55.724;37.612;2023-07-24T09:06:36;7.07;;;4.20;;
42094;SDS011;27753;55.724;37.612;2023-07-24T09:09:12;9.45;;;4.90;;
42094;SDS011;27753;55.724;37.612;2023-07-24T09:11:54;11.07;;;5.85;;
42094;SDS011;27753;55.724;37.612;2023-07-24T09:14:48;7.47;;;4.57;;
42094;SDS011;27753;55.724;37.612;2023-07-24T09:18:01;10.93;;;4.75;;
42094;SDS011;27753;55.724;37.612;2023-07-24T09:21:01;5.20;;;4.60;;
42094;SDS011;27753;55.724;37.612;2023-07-24T09:23:53;8.80;;;5.45;;
42094;SDS011;27753;55.724;37.612;2023-07-24T09:31:00;5.40;;;4.35;;
42094;SDS011;27753;55.724;37.612;2023-07-24T09:33:45;6.75;;;4.20;;
42094;SDS011;27753;55.724;37.612;2023-07-24T09:37:21;9.57;;;5.35;;
42094;SDS011;27753;55.724;37.612;2023-07-24T09:40:44;7.72;;;5.10;;
42094;SDS011;27753;55.724;37.612;2023-07-24T09:44:12;9.45;;;5.32;;
42094;SDS011;27753;55.724;37.612;2023-07-24T09:57:53;8.50;;;5.55;;
42094;SDS011;27753;55.724;37.612;2023-07-24T10:00:56;7.68;;;4.95;;
42094;SDS011;27753;55.724;37.612;2023-07-24T10:03:58;10.77;;;7.53;;
42094;SDS011;27753;55.724;37.612;2023-07-24T10:07:22;9.95;;;6.00;;
42094;SDS011;27753;55.724;37.612;2023-07-24T10:10:32;6.55;;;4.10;;
42094;SDS011;27753;55.724;37.612;2023-07-24T10:13:32;6.35;;;4.97;;
42094;SDS011;27753;55.724;37.612;2023-07-24T10:16:16;5.55;;;4.93;;
42094;SDS011;27753;55.724;37.612;2023-07-24T10:19:14;4.60;;;2.95;;
42094;SDS011;27753;55.724;37.612;2023-07-24T10:22:00;3.40;;;2.88;;
42094;SDS011;27753;55.724;37.612;2023-07-24T10:24:59;3.67;;;3.38;;
42094;SDS011;27753;55.724;37.612;2023-07-24T10:28:29;4.65;;;4.10;;
42094;SDS011;27753;55.724;37.612;2023-07-24T10:32:16;6.47;;;3.72;;
42094;SDS011;27753;55.724;37.612;2023-07-24T10:38:36;5.97;;;4.45;;
42094;SDS011;27753;55.724;37.612;2023-07-24T10:41:33;6.97;;;4.68;;
42094;SDS011;27753;55.724;37.612;2023-07-24T10:44:03;6.38;;;4.75;;
42094;SDS011;27753;55.724;37.612;2023-07-24T10:46:53;4.63;;;4.23;;
42094;SDS011;27753;55.724;37.612;2023-07-24T10:50:12;6.00;;;4.30;;
42094;SDS011;27753;55.724;37.612;2023-07-24T10:53:16;8.45;;;5.07;;
42094;SDS011;27753;55.724;37.612;2023-07-24T10:56:05;7.05;;;5.57;;
42094;SDS011;27753;55.724;37.612;2023-07-24T10:58:42;8.05;;;5.35;;
42094;SDS011;27753;55.724;37.612;2023-07-24T11:01:08;7.75;;;5.10;;
42094;SDS011;27753;55.724;37.612;2023-07-24T11:03:37;6.85;;;5.25;;
42094;SDS011;27753;55.724;37.612;2023-07-24T11:06:22;6.15;;;3.90;;
42094;SDS011;27753;55.724;37.612;2023-07-24T11:09:06;6.87;;;5.37;;
42094;SDS011;27753;55.724;37.612;2023-07-24T11:11:39;8.27;;;4.95;;
42094;SDS011;27753;55.724;37.612;2023-07-24T11:14:52;7.10;;;5.20;;
42094;SDS011;27753;55.724;37.612;2023-07-24T11:17:42;6.57;;;5.60;;
42094;SDS011;27753;55.724;37.612;2023-07-24T11:20:36;6.63;;;5.70;;
42094;SDS011;27753;55.724;37.612;2023-07-24T11:23:49;8.43;;;5.45;;
42094;SDS011;27753;55.724;37.612;2023-07-24T11:26:38;10.23;;;5.38;;
42094;SDS011;27753;55.724;37.612;2023-07-24T11:29:13;7.95;;;5.45;;
42094;SDS011;27753;55.724;37.612;2023-07-24T11:32:16;6.40;;;4.90;;
42094;SDS011;27753;55.724;37.612;2023-07-24T11:35:44;7.63;;;6.18;;
42094;SDS011;27753;55.724;37.612;2023-07-24T11:38:47;8.48;;;6.50;;
42094;SDS011;27753;55.724;37.612;2023-07-24T11:41:53;7.68;;;6.18;;
42094;SDS011;27753;55.724;37.612;2023-07-24T11:44:26;9.52;;;6.07;;
42094;SDS011;27753;55.724;37.612;2023-07-24T11:52:51;8.45;;;6.57;;
42094;SDS011;27753;55.724;37.612;2023-07-24T11:55:31;6.15;;;5.25;;
42094;SDS011;27753;55.724;37.612;2023-07-24T11:58:15;8.95;;;6.13;;
42094;SDS011;27753;55.724;37.612;2023-07-24T12:00:48;11.43;;;6.93;;
42094;SDS011;27753;55.724;37.612;2023-07-24T12:03:36;12.40;;;6.70;;
42094;SDS011;27753;55.724;37.612;2023-07-24T12:06:05;11.10;;;7.03;;
42094;SDS011;27753;55.724;37.612;2023-07-24T12:08:43;10.50;;;6.95;;
42094;SDS011;27753;55.724;37.612;2023-07-24T12:11:24;10.73;;;6.70;;
42094;SDS011;27753;55.724;37.612;2023-07-24T12:14:16;13.00;;;7.45;;
42094;SDS011;27753;55.724;37.612;2023-07-24T12:17:03;10.60;;;6.82;;
42094;SDS011;27753;55.724;37.612;2023-07-24T12:19:57;8.65;;;7.30;;
42094;SDS011;27753;55.724;37.612;2023-07-24T12:22:48;11.65;;;7.38;;
42094;SDS011;27753;55.724;37.612;2023-07-24T12:25:18;7.55;;;6.03;;
42094;SDS011;27753;55.724;37.612;2023-07-24T12:27:53;12.88;;;8.43;;
42094;SDS011;27753;55.724;37.612;2023-07-24T12:30:57;14.27;;;9.68;;
42094;SDS011;27753;55.724;37.612;2023-07-24T12:34:15;7.82;;;6.63;;
42094;SDS011;27753;55.724;37.612;2023-07-24T12:36:43;8.98;;;5.65;;
42094;SDS011;27753;55.724;37.612;2023-07-24T12:39:24;8.18;;;5.63;;
42094;SDS011;27753;55.724;37.612;2023-07-24T12:41:56;7.10;;;6.25;;
42094;SDS011;27753;55.724;37.612;2023-07-24T12:44:25;9.38;;;6.95;;
42094;SDS011;27753;55.724;37.612;2023-07-24T12:51:06;8.00;;;7.20;;
42094;SDS011;27753;55.724;37.612;2023-07-24T12:54:05;9.82;;;7.93;;
42094;SDS011;27753;55.724;37.612;2023-07-24T12:57:26;9.88;;;6.72;;
42094;SDS011;27753;55.724;37.612;2023-07-24T13:00:34;6.88;;;5.72;;
42094;SDS011;27753;55.724;37.612;2023-07-24T13:04:19;7.07;;;5.85;;
42094;SDS011;27753;55.724;37.612;2023-07-24T13:07:41;6.65;;;5.82;;
42094;SDS011;27753;55.724;37.612;2023-07-24T13:10:11;9.15;;;6.97;;
42094;SDS011;27753;55.724;37.612;2023-07-24T13:12:49;9.52;;;6.30;;
42094;SDS011;27753;55.724;37.612;2023-07-24T13:15:26;7.68;;;5.93;;
42094;SDS011;27753;55.724;37.612;2023-07-24T13:18:18;7.18;;;5.88;;
42094;SDS011;27753;55.724;37.612;2023-07-24T13:21:37;10.55;;;7.90;;
42094;SDS011;27753;55.724;37.612;2023-07-24T13:24:13;10.18;;;6.50;;
42094;SDS011;27753;55.724;37.612;2023-07-24T13:26:45;6.85;;;6.15;;
42094;SDS011;27753;55.724;37.612;2023-07-24T13:29:22;8.32;;;6.18;;
42094;SDS011;27753;55.724;37.612;2023-07-24T13:34:23;9.93;;;6.32;;
42094;SDS011;27753;55.724;37.612;2023-07-24T13:36:50;9.68;;;7.20;;
42094;SDS011;27753;55.724;37.612;2023-07-24T13:39:25;7.65;;;6.60;;
42094;SDS011;27753;55.724;37.612;2023-07-24T13:41:55;9.43;;;5.50;;
42094;SDS011;27753;55.724;37.612;2023-07-24T13:44:44;9.20;;;7.75;;
42094;SDS011;27753;55.724;37.612;2023-07-24T13:47:14;9.75;;;7.13;;
42094;SDS011;27753;55.724;37.612;2023-07-24T13:49:42;16.95;;;10.88;;
42094;SDS011;27753;55.724;37.612;2023-07-24T13:52:14;9.90;;;7.20;;
42094;SDS011;27753;55.724;37.612;2023-07-24T13:54:41;11.93;;;7.68;;
42094;SDS011;27753;55.724;37.612;2023-07-24T13:57:07;7.03;;;5.47;;
42094;SDS011;27753;55.724;37.612;2023-07-24T13:59:36;11.07;;;5.90;;
42094;SDS011;27753;55.724;37.612;2023-07-24T14:02:08;7.97;;;5.10;;
42094;SDS011;27753;55.724;37.612;2023-07-24T14:04:38;8.82;;;5.75;;
42094;SDS011;27753;55.724;37.612;2023-07-24T14:07:07;7.70;;;6.72;;
42094;SDS011;27753;55.724;37.612;2023-07-24T14:09:42;9.63;;;7.22;;
42094;SDS011;27753;55.724;37.612;2023-07-24T14:12:19;8.65;;;6.78;;
42094;SDS011;27753;55.724;37.612;2023-07-24T14:14:47;13.93;;;6.43;;
42094;SDS011;27753;55.724;37.612;2023-07-24T14:17:20;8.82;;;7.10;;
42094;SDS011;27753;55.724;37.612;2023-07-24T14:20:04;9.18;;;5.50;;
42094;SDS011;27753;55.724;37.612;2023-07-24T14:22:51;10.40;;;5.65;;
42094;SDS011;27753;55.724;37.612;2023-07-24T14:25:29;10.70;;;7.00;;
42094;SDS011;27753;55.724;37.612;2023-07-24T14:28:00;7.10;;;6.35;;
42094;SDS011;27753;55.724;37.612;2023-07-24T14:30:56;9.05;;;5.93;;
42094;SDS011;27753;55.724;37.612;2023-07-24T14:34:24;8.50;;;5.88;;
42094;SDS011;27753;55.724;37.612;2023-07-24T14:37:24;8.27;;;5.68;;
42094;SDS011;27753;55.724;37.612;2023-07-24T14:40:18;18.23;;;10.32;;
42094;SDS011;27753;55.724;37.612;2023-07-24T14:43:31;18.52;;;7.68;;
42094;SDS011;27753;55.724;37.612;2023-07-24T14:46:35;14.10;;;7.07;;
42094;SDS011;27753;55.724;37.612;2023-07-24T14:49:25;11.65;;;7.43;;
42094;SDS011;27753;55.724;37.612;2023-07-24T14:52:06;8.85;;;6.63;;
42094;SDS011;27753;55.724;37.612;2023-07-24T14:54:35;8.68;;;6.68;;
42094;SDS011;27753;55.724;37.612;2023-07-24T14:57:05;9.57;;;6.72;;
42094;SDS011;27753;55.724;37.612;2023-07-24T14:59:45;7.97;;;6.32;;
42094;SDS011;27753;55.724;37.612;2023-07-24T15:02:23;11.70;;;7.25;;
42094;SDS011;27753;55.724;37.612;2023-07-24T15:05:13;9.88;;;6.70;;
42094;SDS011;27753;55.724;37.612;2023-07-24T15:08:03;7.35;;;6.00;;
42094;SDS011;27753;55.724;37.612;2023-07-24T15:10:47;10.45;;;7.00;;
42094;SDS011;27753;55.724;37.612;2023-07-24T15:13:20;13.10;;;6.85;;
42094;SDS011;27753;55.724;37.612;2023-07-24T15:15:48;11.68;;;7.55;;
42094;SDS011;27753;55.724;37.612;2023-07-24T15:18:42;11.30;;;7.60;;
42094;SDS011;27753;55.724;37.612;2023-07-24T15:21:18;9.00;;;6.93;;
42094;SDS011;27753;55.724;37.612;2023-07-24T15:23:46;10.80;;;7.75;;
42094;SDS011;27753;55.724;37.612;2023-07-24T15:26:24;15.85;;;10.13;;
42094;SDS011;27753;55.724;37.612;2023-07-24T15:29:37;11.27;;;7.70;;
42094;SDS011;27753;55.724;37.612;2023-07-24T15:32:44;10.85;;;7.75;;
42094;SDS011;27753;55.724;37.612;2023-07-24T15:36:08;13.27;;;7.15;;
42094;SDS011;27753;55.724;37.612;2023-07-24T15:42:32;12.70;;;7.75;;
42094;SDS011;27753;55.724;37.612;2023-07-24T15:45:14;9.85;;;7.05;;
42094;SDS011;27753;55.724;37.612;2023-07-24T15:48:02;8.50;;;7.22;;
42094;SDS011;27753;55.724;37.612;2023-07-24T15:50:33;11.00;;;7.05;;
42094;SDS011;27753;55.724;37.612;2023-07-24T15:54:08;9.82;;;7.07;;
42094;SDS011;27753;55.724;37.612;2023-07-24T15:56:39;10.38;;;7.75;;
42094;SDS011;27753;55.724;37.612;2023-07-24T15:59:07;10.82;;;7.85;;
42094;SDS011;27753;55.724;37.612;2023-07-24T16:02:26;11.23;;;7.55;;
42094;SDS011;27753;55.724;37.612;2023-07-24T16:04:59;17.27;;;10.85;;
42094;SDS011;27753;55.724;37.612;2023-07-24T16:07:35;15.55;;;10.82;;
42094;SDS011;27753;55.724;37.612;2023-07-24T16:10:18;16.17;;;11.23;;
42094;SDS011;27753;55.724;37.612;2023-07-24T16:13:15;11.18;;;7.20;;
42094;SDS011;27753;55.724;37.612;2023-07-24T16:15:48;11.98;;;7.30;;
42094;SDS011;27753;55.724;37.612;2023-07-24T16:19:15;10.45;;;6.95;;
42094;SDS011;27753;55.724;37.612;2023-07-24T16:21:56;8.10;;;7.30;;
42094;SDS011;27753;55.724;37.612;2023-07-24T16:24:26;12.00;;;10.00;;
42094;SDS011;27753;55.724;37.612;2023-07-24T16:26:52;10.65;;;8.82;;